createdAt,value
2019-04-26T00:00:58.688Z,10.86
2019-04-26T00:06:05.747Z,10.88
2019-04-26T00:11:13.764Z,10.80
2019-04-26T00:16:27.087Z,10.81
2019-04-26T00:21:32.667Z,10.56
2019-04-26T00:26:38.667Z,10.57
2019-04-26T00:31:45.367Z,10.47
2019-04-26T00:36:51.109Z,10.51
2019-04-26T00:41:57.227Z,10.50
2019-04-26T00:47:04.235Z,10.56
2019-04-26T00:52:11.270Z,10.48
2019-04-26T00:57:18.406Z,10.34
2019-04-26T01:02:25.870Z,10.42
2019-04-26T01:07:31.508Z,10.29
2019-04-26T01:12:37.108Z,10.25
2019-04-26T01:17:42.606Z,10.20
2019-04-26T01:22:50.986Z,10.17
2019-04-26T01:27:56.887Z,9.99
2019-04-26T01:33:03.531Z,10.10
2019-04-26T01:38:12.007Z,10.10
2019-04-26T01:43:23.109Z,10.07
2019-04-26T01:48:43.448Z,10.08
2019-04-26T01:53:52.307Z,10.03
2019-04-26T01:58:58.148Z,9.99
2019-04-26T02:04:03.893Z,9.99
2019-04-26T02:09:10.447Z,10.01
2019-04-26T02:14:16.188Z,10.11
2019-04-26T02:19:23.313Z,10.00
2019-04-26T02:24:32.159Z,10.14
2019-04-26T02:29:38.108Z,10.14
2019-04-26T02:34:44.271Z,10.09
2019-04-26T02:39:51.296Z,10.24
2019-04-26T02:45:28.312Z,10.23
2019-04-26T02:50:35.392Z,10.21
2019-04-26T02:55:53.928Z,10.22
2019-04-26T03:01:02.068Z,10.08
2019-04-26T03:06:08.108Z,10.05
2019-04-26T03:11:17.543Z,10.10
2019-04-26T03:16:43.308Z,9.94
2019-04-26T03:22:00.667Z,10.01
2019-04-26T03:27:27.271Z,10.09
2019-04-26T03:33:10.581Z,10.06
2019-04-26T03:38:26.605Z,10.04
2019-04-26T03:43:39.070Z,10.00
2019-04-26T03:49:20.287Z,9.95
2019-04-26T03:54:31.517Z,10.11
2019-04-26T03:59:42.712Z,10.08
2019-04-26T04:04:53.187Z,10.15
2019-04-26T04:10:04.527Z,10.36
2019-04-26T04:15:19.090Z,10.31
2019-04-26T04:20:56.180Z,10.49
2019-04-26T04:26:04.707Z,10.99
2019-04-26T04:31:21.768Z,11.32
2019-04-26T04:36:30.169Z,11.87
2019-04-26T04:41:47.001Z,12.40
2019-04-26T04:47:23.670Z,13.31
2019-04-26T04:52:37.456Z,13.63
2019-04-26T04:58:03.831Z,14.22
2019-04-26T05:03:34.826Z,16.07
2019-04-26T05:08:52.993Z,16.12
2019-04-26T05:14:08.328Z,15.89
2019-04-26T05:19:39.412Z,16.35
2019-04-26T05:25:17.826Z,16.31
2019-04-26T05:30:47.880Z,18.17
2019-04-26T05:36:00.885Z,19.26
2019-04-26T05:41:28.346Z,20.12
2019-04-26T05:46:59.367Z,20.75
2019-04-26T05:52:31.907Z,20.56
2019-04-26T05:57:41.867Z,20.36
2019-04-26T06:03:02.012Z,20.09
2019-04-26T06:08:30.403Z,20.44
2019-04-26T06:13:47.175Z,20.53
2019-04-26T06:19:43.966Z,20.12
2019-04-26T06:25:12.098Z,19.85
2019-04-26T06:30:20.526Z,20.36
2019-04-26T06:35:28.516Z,20.33
2019-04-26T06:40:42.046Z,20.51
2019-04-26T06:46:06.466Z,21.70
2019-04-26T06:51:24.528Z,21.47
2019-04-26T06:56:52.767Z,21.02
2019-04-26T07:02:09.909Z,21.46
2019-04-26T07:07:36.187Z,21.28
2019-04-26T07:13:04.398Z,21.62
2019-04-26T07:18:18.630Z,20.95
2019-04-26T07:23:49.637Z,21.09
2019-04-26T07:29:30.109Z,21.25
2019-04-26T07:34:50.066Z,21.49
2019-04-26T07:40:12.207Z,21.46
2019-04-26T07:45:38.712Z,21.52
2019-04-26T07:51:19.114Z,21.44
2019-04-26T07:56:42.436Z,21.93
2019-04-26T08:02:00.791Z,21.94
2019-04-26T08:07:13.261Z,21.70
2019-04-26T08:12:21.852Z,21.60
2019-04-26T08:17:42.973Z,21.76
2019-04-26T08:22:52.297Z,21.61
2019-04-26T08:28:00.750Z,21.95
2019-04-26T08:33:12.818Z,21.75
2019-04-26T08:38:22.346Z,21.94
2019-04-26T08:43:49.750Z,22.07
2019-04-26T08:49:11.183Z,22.07
2019-04-26T08:54:21.048Z,22.27
2019-04-26T08:59:29.506Z,22.45
2019-04-26T09:04:54.526Z,22.28
2019-04-26T09:10:10.682Z,22.55
2019-04-26T09:15:13.851Z,22.74
2019-04-26T09:20:28.488Z,22.62
2019-04-26T09:25:30.265Z,22.74
2019-04-26T09:30:53.729Z,23.06
2019-04-26T09:35:59.487Z,23.10
2019-04-26T09:41:05.412Z,23.70
2019-04-26T09:46:18.431Z,23.54
2019-04-26T09:51:24.047Z,23.22
2019-04-26T09:56:29.528Z,23.76
2019-04-26T10:01:34.988Z,24.01
2019-04-26T10:06:40.847Z,23.98
2019-04-26T10:11:50.851Z,24.03
2019-04-26T10:17:02.257Z,24.37
2019-04-26T10:22:08.006Z,24.28
2019-04-26T10:27:13.627Z,24.83
2019-04-26T10:32:21.790Z,25.06
2019-04-26T10:37:38.749Z,24.73
2019-04-26T10:42:33.847Z,25.23
2019-04-26T10:47:39.917Z,25.12
2019-04-26T10:52:53.328Z,25.23
2019-04-26T10:57:56.501Z,25.40
2019-04-26T11:03:04.438Z,25.29
2019-04-26T11:08:09.567Z,25.59
2019-04-26T11:13:15.108Z,25.68
2019-04-26T11:18:27.377Z,25.52
2019-04-26T11:23:28.170Z,25.67
2019-04-26T11:28:33.892Z,25.99
2019-04-26T11:33:44.929Z,26.33
2019-04-26T11:38:49.781Z,25.81
2019-04-26T11:44:05.410Z,26.31
2019-04-26T11:49:11.067Z,25.68
2019-04-26T11:54:17.059Z,25.70
2019-04-26T11:59:26.996Z,26.21
2019-04-26T12:04:35.845Z,26.16
2019-04-26T12:09:42.968Z,25.67
2019-04-26T12:14:48.469Z,26.16
2019-04-26T12:19:54.312Z,26.43
2019-04-26T12:25:03.467Z,26.04
2019-04-26T12:30:08.547Z,25.73
2019-04-26T12:35:14.105Z,25.79
2019-04-26T12:43:08.382Z,26.12
2019-04-26T12:48:16.722Z,25.46
2019-04-26T12:53:22.427Z,25.47
2019-04-26T12:58:28.068Z,26.10
2019-04-26T13:03:33.607Z,26.25
2019-04-26T13:08:39.048Z,25.82
2019-04-26T13:14:01.223Z,25.79
2019-04-26T13:19:06.986Z,25.46
2019-04-26T13:24:12.584Z,25.43
2019-04-26T13:29:18.042Z,25.26
2019-04-26T13:34:23.528Z,24.98
2019-04-26T13:39:28.986Z,24.88
2019-04-26T13:44:52.267Z,25.03
2019-04-26T13:50:05.317Z,25.21
2019-04-26T13:55:10.996Z,25.25
2019-04-26T14:00:18.462Z,24.96
2019-04-26T14:05:23.977Z,24.83
2019-04-26T14:10:29.547Z,24.95
2019-04-26T14:15:35.023Z,24.80
2019-04-26T14:20:40.470Z,24.96
2019-04-26T14:26:05.147Z,24.90
2019-04-26T14:31:12.147Z,24.72
2019-04-26T14:36:22.361Z,24.67
2019-04-26T14:41:25.837Z,24.69
2019-04-26T14:46:31.382Z,24.67
2019-04-26T14:51:36.908Z,24.38
2019-04-26T14:56:52.139Z,24.38
2019-04-26T15:01:52.289Z,24.58
2019-04-26T15:06:59.717Z,24.45
2019-04-26T15:12:07.755Z,24.36
2019-04-26T15:17:16.298Z,24.03
2019-04-26T15:22:20.190Z,24.08
2019-04-26T15:27:25.787Z,24.22
2019-04-26T15:32:32.873Z,24.10
2019-04-26T15:37:38.758Z,24.15
2019-04-26T15:43:01.164Z,23.69
2019-04-26T15:48:20.071Z,23.69
2019-04-26T15:53:23.994Z,23.78
2019-04-26T15:58:29.597Z,23.46
2019-04-26T16:03:36.854Z,23.51
2019-04-26T16:08:43.863Z,23.36
2019-04-26T16:13:52.123Z,23.28
2019-04-26T16:18:57.263Z,23.04
2019-04-26T16:24:03.009Z,22.95
2019-04-26T16:29:14.145Z,22.72
2019-04-26T16:34:19.988Z,22.59
2019-04-26T16:39:32.374Z,22.33
2019-04-26T16:44:33.533Z,21.93
2019-04-26T16:54:47.447Z,21.17
2019-04-26T16:59:59.711Z,20.67
2019-04-26T17:05:16.497Z,20.32
2019-04-26T17:09:37.395Z,21.52
2019-04-26T17:10:08.996Z,19.91
2019-04-26T17:15:17.583Z,19.47
2019-04-26T17:20:21.912Z,19.17
2019-04-26T17:25:37.984Z,18.75
2019-04-26T17:30:44.634Z,18.60
2019-04-26T17:35:50.517Z,18.27
2019-04-26T17:40:56.037Z,17.97
2019-04-26T17:46:01.559Z,17.61
2019-04-26T17:51:12.154Z,17.35
2019-04-26T17:56:14.319Z,17.14
2019-04-26T18:01:39.858Z,16.88
2019-04-26T18:06:29.779Z,16.64
2019-04-26T18:11:34.352Z,16.58
2019-04-26T18:16:42.722Z,16.26
2019-04-26T18:21:56.024Z,16.34
2019-04-26T18:27:00.601Z,16.07
2019-04-26T18:32:06.441Z,15.85
2019-04-26T18:37:13.347Z,15.77
2019-04-26T18:42:19.346Z,15.75
2019-04-26T18:47:28.293Z,15.72
2019-04-26T18:52:37.321Z,15.64
2019-04-26T18:57:43.069Z,15.54
2019-04-26T19:02:53.077Z,15.44
2019-04-26T19:07:56.206Z,15.46
2019-04-26T19:13:04.677Z,15.34
2019-04-26T19:18:18.211Z,15.31
2019-04-26T19:23:29.120Z,15.27
2019-04-26T19:28:31.095Z,15.11
2019-04-26T19:33:36.808Z,14.85
2019-04-26T19:38:43.716Z,14.75
2019-04-26T19:43:49.826Z,14.65
2019-04-26T19:49:15.218Z,14.58
2019-04-26T19:54:41.821Z,14.56
2019-04-26T19:59:47.452Z,14.50
2019-04-26T20:04:52.958Z,14.43
2019-04-26T20:10:02.620Z,14.39
2019-04-26T20:15:07.695Z,14.33
2019-04-26T20:20:20.969Z,14.22
2019-04-26T20:25:22.328Z,14.22
2019-04-26T20:30:32.519Z,14.11
2019-04-26T20:35:38.012Z,14.09
2019-04-26T20:40:47.371Z,14.02
2019-04-26T20:46:11.037Z,13.95
2019-04-26T20:50:58.118Z,13.90
2019-04-26T20:56:09.366Z,13.82
2019-04-26T21:01:14.041Z,13.88
2019-04-26T21:06:18.397Z,13.81
2019-04-26T21:11:24.395Z,13.80
2019-04-26T21:16:29.932Z,13.72
2019-04-26T21:21:35.492Z,13.67
2019-04-26T21:26:54.498Z,13.64
2019-04-26T21:32:00.140Z,13.56
2019-04-26T21:37:11.357Z,13.63
2019-04-26T21:42:20.910Z,13.62
2019-04-26T21:47:27.704Z,13.63
2019-04-26T21:52:31.932Z,13.65
2019-04-26T21:57:37.414Z,13.58
2019-04-26T22:02:43.233Z,13.58
2019-04-26T22:07:48.713Z,13.58
2019-04-26T22:12:54.171Z,13.56
2019-04-26T22:18:03.129Z,13.57
2019-04-26T22:23:21.449Z,13.53
2019-04-26T22:28:26.970Z,13.45
2019-04-26T22:33:34.087Z,13.43
2019-04-26T22:38:39.753Z,13.26
2019-04-26T22:43:49.575Z,13.35
2019-04-26T22:49:01.267Z,13.26
2019-04-26T22:54:06.165Z,13.18
2019-04-26T22:59:10.133Z,13.12
2019-04-26T23:04:22.583Z,13.14
2019-04-26T23:09:23.518Z,13.11
2019-04-26T23:14:48.268Z,13.02
2019-04-26T23:19:57.402Z,12.95
2019-04-26T23:25:03.516Z,12.95
2019-04-26T23:30:13.041Z,12.81
2019-04-26T23:35:18.707Z,12.77
2019-04-26T23:40:25.644Z,12.71
2019-04-26T23:45:33.296Z,12.78
2019-04-26T23:50:38.951Z,12.73
2019-04-26T23:55:45.321Z,12.70
